Time;durP1;ratioP1;P1;durP2;ratioP2;P2;SDS_P1;SDS_P2;PMS_P1;PMS_P2;Temp;Humidity;BMP_temperature;BMP_pressure;BME280_temperature;BME280_humidity;BME280_pressure;Samples;Min_cycle;Max_cycle;Signal;HPM_P1;HPM_P2
2022/11/13 00:02:49;;;;;;;35.28;28.23;;;;;;;;;;10039710;28;20048;-71
2022/11/13 00:08:01;;;;;;;44.83;35.60;;;;;;;;;;10047343;28;20040;-71
2022/11/13 00:13:14;;;;;;;48.67;36.35;;;;;;;;;;10043973;28;20515;-70
2022/11/13 00:18:25;;;;;;;48.92;37.80;;;;;;;;;;10040741;28;20085;-71
2022/11/13 00:23:38;;;;;;;54.60;39.28;;;;;;;;;;10038771;28;20435;-70
2022/11/13 00:28:58;;;;;;;50.28;38.25;;;;;;;;;;10039380;28;20140;-71
2022/11/13 00:34:10;;;;;;;52.63;38.72;;;;;;;;;;10043376;28;20103;-71
2022/11/13 00:39:41;;;;;;;54.90;39.88;;;;;;;;;;10040986;28;20539;-71
2022/11/13 00:44:53;;;;;;;50.75;38.85;;;;;;;;;;10038318;28;20103;-71
2022/11/13 00:50:07;;;;;;;50.55;37.63;;;;;;;;;;10027148;28;20073;-70
2022/11/13 00:55:19;;;;;;;44.22;32.97;;;;;;;;;;10031139;28;20081;-70
2022/11/13 01:00:31;;;;;;;47.00;33.67;;;;;;;;;;10031703;28;20052;-71
2022/11/13 01:05:45;;;;;;;48.33;34.20;;;;;;;;;;10030919;28;20511;-71
2022/11/13 01:10:57;;;;;;;43.75;33.75;;;;;;;;;;10017839;28;20129;-71
2022/11/13 01:16:10;;;;;;;48.92;31.52;;;;;;;;;;10030296;28;20104;-71
2022/11/13 01:21:25;;;;;;;33.55;25.00;;;;;;;;;;10030034;28;20056;-71
2022/11/13 01:26:37;;;;;;;27.48;22.08;;;;;;;;;;10030811;28;20124;-71
2022/11/13 01:31:49;;;;;;;21.42;17.67;;;;;;;;;;10030312;28;20144;-71
2022/11/13 01:37:01;;;;;;;22.38;19.27;;;;;;;;;;10029101;28;20056;-71
2022/11/13 01:42:13;;;;;;;25.58;22.90;;;;;;;;;;10029599;28;20054;-72
2022/11/13 01:47:24;;;;;;;30.65;27.48;;;;;;;;;;10029325;28;20109;-71
2022/11/13 01:52:38;;;;;;;28.23;25.23;;;;;;;;;;10030228;28;20135;-71
2022/11/13 01:57:50;;;;;;;23.60;18.77;;;;;;;;;;10020418;28;20598;-71
2022/11/13 02:03:03;;;;;;;22.23;18.70;;;;;;;;;;10029043;28;20108;-72
2022/11/13 02:08:14;;;;;;;24.52;18.50;;;;;;;;;;10029232;28;20112;-71
2022/11/13 02:13:26;;;;;;;23.73;17.40;;;;;;;;;;10028717;28;20553;-72
2022/11/13 02:18:38;;;;;;;24.15;18.48;;;;;;;;;;10025042;28;20416;-72
2022/11/13 02:24:00;;;;;;;24.52;18.77;;;;;;;;;;10028601;28;20467;-72
2022/11/13 02:29:12;;;;;;;24.48;18.88;;;;;;;;;;10011513;28;20052;-72
2022/11/13 02:34:24;;;;;;;27.45;22.65;;;;;;;;;;10028140;28;20056;-72
2022/11/13 02:39:37;;;;;;;26.17;19.48;;;;;;;;;;10028308;28;20065;-72
2022/11/13 02:44:49;;;;;;;31.00;18.50;;;;;;;;;;10027600;28;20582;-72
2022/11/13 02:50:01;;;;;;;28.60;20.95;;;;;;;;;;10027178;28;20073;-72
2022/11/13 02:55:14;;;;;;;31.48;23.08;;;;;;;;;;10033513;28;20119;-72
2022/11/13 03:00:27;;;;;;;26.67;19.80;;;;;;;;;;10030725;28;20121;-72
2022/11/13 03:05:39;;;;;;;25.45;20.23;;;;;;;;;;10027124;28;20424;-72
2022/11/13 03:10:54;;;;;;;20.73;17.70;;;;;;;;;;10027001;28;20108;-72
2022/11/13 03:16:11;;;;;;;19.38;17.30;;;;;;;;;;10026832;28;20413;-72
2022/11/13 03:21:23;;;;;;;25.30;21.08;;;;;;;;;;10027701;28;20072;-72
2022/11/13 03:26:35;;;;;;;20.85;16.95;;;;;;;;;;10026772;28;20056;-72
2022/11/13 03:31:47;;;;;;;23.73;18.90;;;;;;;;;;10027110;28;20066;-72
2022/11/13 03:36:59;;;;;;;19.13;16.50;;;;;;;;;;10026475;28;20100;-72
2022/11/13 03:42:11;;;;;;;25.13;19.83;;;;;;;;;;10026783;28;20436;-72
2022/11/13 03:47:24;;;;;;;22.25;19.83;;;;;;;;;;10026653;28;20101;-72
2022/11/13 03:52:36;;;;;;;18.15;16.23;;;;;;;;;;10023607;28;20108;-72
2022/11/13 03:57:48;;;;;;;20.75;16.52;;;;;;;;;;10025807;28;20060;-72
2022/11/13 04:03:00;;;;;;;17.08;14.32;;;;;;;;;;10031234;28;21550;-72
2022/11/13 04:08:12;;;;;;;17.15;15.30;;;;;;;;;;10033117;28;20052;-72
2022/11/13 04:13:25;;;;;;;24.63;17.55;;;;;;;;;;10032824;28;20061;-72
2022/11/13 04:18:36;;;;;;;18.65;16.65;;;;;;;;;;10033058;28;20096;-73
2022/11/13 04:23:48;;;;;;;17.60;14.38;;;;;;;;;;10033330;28;20408;-73
2022/11/13 04:29:00;;;;;;;16.00;14.30;;;;;;;;;;10031859;28;20084;-72
2022/11/13 04:34:12;;;;;;;16.58;13.18;;;;;;;;;;10032208;28;20451;-72
2022/11/13 04:39:24;;;;;;;17.55;14.98;;;;;;;;;;10031622;28;20104;-72
2022/11/13 04:44:36;;;;;;;17.45;14.35;;;;;;;;;;10031089;28;20049;-72
2022/11/13 04:49:48;;;;;;;16.88;14.88;;;;;;;;;;10031933;28;20080;-73
2022/11/13 04:55:00;;;;;;;18.60;16.40;;;;;;;;;;10010551;28;20500;-72
2022/11/13 05:00:14;;;;;;;19.65;17.67;;;;;;;;;;10041775;28;20064;-72
2022/11/13 05:05:26;;;;;;;19.10;17.13;;;;;;;;;;10030785;28;20071;-73
2022/11/13 05:10:38;;;;;;;19.13;17.15;;;;;;;;;;10029118;28;20096;-72
2022/11/13 05:15:49;;;;;;;19.35;17.42;;;;;;;;;;10029768;28;20061;-72
2022/11/13 05:21:02;;;;;;;19.08;17.13;;;;;;;;;;10029660;28;20138;-72
2022/11/13 05:26:14;;;;;;;19.77;16.83;;;;;;;;;;10030323;28;20049;-72
2022/11/13 05:31:27;;;;;;;16.30;14.60;;;;;;;;;;10029568;28;20065;-72
2022/11/13 05:36:39;;;;;;;14.63;13.05;;;;;;;;;;10029484;28;20053;-72
2022/11/13 05:41:52;;;;;;;15.85;14.25;;;;;;;;;;10029912;28;20116;-73
2022/11/13 05:47:07;;;;;;;18.65;15.23;;;;;;;;;;10030258;28;20129;-73
2022/11/13 05:52:19;;;;;;;15.60;13.75;;;;;;;;;;10029141;28;20056;-72
2022/11/13 05:57:32;;;;;;;17.25;15.40;;;;;;;;;;10029263;28;20068;-72
2022/11/13 06:02:43;;;;;;;18.55;15.95;;;;;;;;;;10029629;28;20180;-73
2022/11/13 06:07:56;;;;;;;18.23;15.57;;;;;;;;;;10028736;28;20124;-72
2022/11/13 06:13:07;;;;;;;20.25;17.35;;;;;;;;;;10028857;28;20140;-72
2022/11/13 06:18:23;;;;;;;18.83;16.92;;;;;;;;;;10028340;28;20049;-72
2022/11/13 06:23:37;;;;;;;19.63;17.58;;;;;;;;;;10028964;28;20108;-73
2022/11/13 06:28:49;;;;;;;17.90;16.13;;;;;;;;;;10013547;28;20111;-73
2022/11/13 06:34:01;;;;;;;19.63;15.98;;;;;;;;;;10028350;28;20105;-71
2022/11/13 06:39:13;;;;;;;18.13;15.50;;;;;;;;;;10027367;28;20057;-71
2022/11/13 06:44:25;;;;;;;19.50;15.15;;;;;;;;;;10027326;28;20053;-70
2022/11/13 06:49:38;;;;;;;18.02;16.13;;;;;;;;;;10027478;28;20061;-75
2022/11/13 06:54:50;;;;;;;21.42;16.63;;;;;;;;;;10027783;28;20420;-77
2022/11/13 07:00:01;;;;;;;20.23;16.38;;;;;;;;;;10026116;28;20065;-78
2022/11/13 07:05:14;;;;;;;19.92;17.65;;;;;;;;;;9995457;28;20193;-81
2022/11/13 07:10:26;;;;;;;22.00;17.08;;;;;;;;;;10027224;28;20563;-83
2022/11/13 07:15:38;;;;;;;21.55;17.00;;;;;;;;;;10027750;28;20462;-82
2022/11/13 07:20:51;;;;;;;18.63;16.50;;;;;;;;;;10025490;28;20101;-81
2022/11/13 07:26:03;;;;;;;25.13;22.42;;;;;;;;;;10032153;28;20061;-81
2022/11/13 07:31:16;;;;;;;28.67;20.98;;;;;;;;;;10028832;28;20531;-81
2022/11/13 07:36:29;;;;;;;25.05;20.20;;;;;;;;;;10026478;28;20714;-82
2022/11/13 07:41:40;;;;;;;26.67;22.92;;;;;;;;;;10024074;28;20795;-81
2022/11/13 07:46:52;;;;;;;24.52;21.75;;;;;;;;;;10036148;28;20133;-81
2022/11/13 07:52:04;;;;;;;28.52;17.27;;;;;;;;;;10037071;28;20072;-69
2022/11/13 07:57:17;;;;;;;23.70;20.23;;;;;;;;;;10028378;28;20065;-77
2022/11/13 08:02:29;;;;;;;21.42;18.40;;;;;;;;;;10027955;28;20124;-75
2022/11/13 08:07:42;;;;;;;23.00;17.52;;;;;;;;;;10028232;28;20056;-79
2022/11/13 08:13:05;;;;;;;24.33;20.15;;;;;;;;;;10025786;28;20089;-78
2022/11/13 08:18:17;;;;;;;24.25;20.17;;;;;;;;;;10026003;28;20614;-76
2022/11/13 08:23:31;;;;;;;23.48;19.30;;;;;;;;;;10021111;28;20053;-78
2022/11/13 08:28:44;;;;;;;27.85;21.77;;;;;;;;;;10023231;28;20127;-77
2022/11/13 08:33:56;;;;;;;26.42;19.15;;;;;;;;;;10027621;28;20049;-77
2022/11/13 08:39:08;;;;;;;27.67;18.85;;;;;;;;;;10024802;28;20240;-80
2022/11/13 08:44:20;;;;;;;29.23;21.80;;;;;;;;;;10029380;28;20069;-80
2022/11/13 08:49:33;;;;;;;31.02;22.63;;;;;;;;;;10020949;28;20072;-80
2022/11/13 08:54:44;;;;;;;32.63;22.65;;;;;;;;;;10023205;28;20054;-77
2022/11/13 08:59:56;;;;;;;28.63;21.50;;;;;;;;;;10024831;28;20099;-81
2022/11/13 09:05:08;;;;;;;25.48;19.13;;;;;;;;;;10027113;28;20155;-76
2022/11/13 09:10:20;;;;;;;27.55;21.42;;;;;;;;;;10024438;28;20057;-79
2022/11/13 09:15:33;;;;;;;26.73;20.30;;;;;;;;;;10031107;28;20048;-78
2022/11/13 09:20:45;;;;;;;21.35;16.80;;;;;;;;;;10028396;28;20100;-77
2022/11/13 09:26:01;;;;;;;21.05;16.50;;;;;;;;;;10035303;28;20049;-76
2022/11/13 09:31:13;;;;;;;23.35;16.75;;;;;;;;;;10026269;28;20072;-75
2022/11/13 09:36:27;;;;;;;22.08;16.27;;;;;;;;;;10030696;28;20520;-77
2022/11/13 09:41:55;;;;;;;23.33;15.82;;;;;;;;;;10034830;28;20585;-75
2022/11/13 09:47:13;;;;;;;18.77;14.85;;;;;;;;;;10024908;28;20049;-76
2022/11/13 09:52:37;;;;;;;19.60;14.95;;;;;;;;;;10033205;28;20532;-72
2022/11/13 09:58:32;;;;;;;21.10;15.38;;;;;;;;;;10022008;28;20131;-74
2022/11/13 10:03:46;;;;;;;20.98;15.27;;;;;;;;;;10028204;28;20073;-78
2022/11/13 10:09:28;;;;;;;23.10;17.38;;;;;;;;;;10026590;28;20116;-74
2022/11/13 10:14:45;;;;;;;20.95;16.20;;;;;;;;;;10024570;28;20072;-84
2022/11/13 10:20:03;;;;;;;18.10;14.55;;;;;;;;;;10026342;28;20107;-80
2022/11/13 10:25:24;;;;;;;20.17;13.45;;;;;;;;;;10021237;28;20052;-80
2022/11/13 10:30:36;;;;;;;20.17;14.10;;;;;;;;;;10033652;28;20428;-80
2022/11/13 10:36:05;;;;;;;19.70;13.40;;;;;;;;;;10030071;28;20065;-82
2022/11/13 10:41:22;;;;;;;18.03;14.10;;;;;;;;;;10028247;28;20100;-76
2022/11/13 10:46:36;;;;;;;18.70;15.43;;;;;;;;;;10021214;28;20052;-78
2022/11/13 10:52:15;;;;;;;16.83;12.60;;;;;;;;;;10029151;28;20061;-80
2022/11/13 10:57:33;;;;;;;14.18;12.68;;;;;;;;;;10024972;28;20057;-76
2022/11/13 11:02:47;;;;;;;18.30;14.15;;;;;;;;;;10024007;28;20060;-75
2022/11/13 11:08:00;;;;;;;22.92;16.08;;;;;;;;;;10034605;28;20558;-74
2022/11/13 11:13:22;;;;;;;18.67;14.07;;;;;;;;;;10035943;28;20080;-78
2022/11/13 11:19:03;;;;;;;19.50;14.35;;;;;;;;;;10036011;28;20100;-79
2022/11/13 11:24:27;;;;;;;18.00;15.30;;;;;;;;;;10034074;28;20407;-75
2022/11/13 11:29:45;;;;;;;18.05;13.25;;;;;;;;;;10032953;28;20104;-76
2022/11/13 11:35:06;;;;;;;16.42;12.57;;;;;;;;;;10036147;28;20519;-77
2022/11/13 11:40:23;;;;;;;19.63;13.40;;;;;;;;;;10039811;28;20511;-80
2022/11/13 11:45:43;;;;;;;19.42;12.18;;;;;;;;;;10037159;28;20176;-77
2022/11/13 11:51:00;;;;;;;;;;;;;;;;;;10031979;28;20084;-77
2022/11/13 11:56:28;;;;;;;15.60;12.48;;;;;;;;;;10026618;28;19929;-69
2022/11/13 12:02:04;;;;;;;13.65;11.07;;;;;;;;;;10028425;28;20060;-72
2022/11/13 12:07:27;;;;;;;14.40;11.50;;;;;;;;;;10028897;28;20135;-71
2022/11/13 12:12:57;;;;;;;13.80;10.57;;;;;;;;;;10030946;28;20041;-71
2022/11/13 12:18:15;;;;;;;14.95;10.13;;;;;;;;;;10030457;28;20050;-72
2022/11/13 12:23:40;;;;;;;15.80;12.70;;;;;;;;;;10030162;28;20056;-72
2022/11/13 12:29:09;;;;;;;15.48;9.75;;;;;;;;;;10030179;28;20060;-71
2022/11/13 12:34:28;;;;;;;14.20;12.25;;;;;;;;;;10029639;28;20086;-71
2022/11/13 12:39:59;;;;;;;15.38;12.20;;;;;;;;;;10043260;28;20057;-71
2022/11/13 12:45:19;;;;;;;12.32;11.02;;;;;;;;;;10029961;28;20092;-72
2022/11/13 12:50:32;;;;;;;13.35;11.18;;;;;;;;;;10029957;28;20061;-73
2022/11/13 12:55:55;;;;;;;14.00;9.90;;;;;;;;;;10029678;28;20049;-73
2022/11/13 13:01:09;;;;;;;19.45;12.02;;;;;;;;;;10031435;28;20203;-71
2022/11/13 13:06:44;;;;;;;14.18;11.35;;;;;;;;;;10032270;28;20061;-69
2022/11/13 13:12:16;;;;;;;13.48;12.05;;;;;;;;;;10018269;28;20096;-69
2022/11/13 13:17:29;;;;;;;14.10;12.13;;;;;;;;;;10027789;28;20542;-68
2022/11/13 13:22:40;;;;;;;15.80;12.05;;;;;;;;;;10028511;28;20056;-69
2022/11/13 13:28:07;;;;;;;14.90;12.38;;;;;;;;;;10028235;28;20100;-71
2022/11/13 13:33:21;;;;;;;12.70;11.35;;;;;;;;;;10027095;28;20052;-72
2022/11/13 13:38:49;;;;;;;16.05;11.90;;;;;;;;;;10027397;28;20127;-72
2022/11/13 13:44:20;;;;;;;12.63;11.30;;;;;;;;;;10025400;28;20538;-72
2022/11/13 13:49:33;;;;;;;14.70;13.13;;;;;;;;;;10031887;28;20056;-70
2022/11/13 13:54:45;;;;;;;14.65;12.25;;;;;;;;;;10034374;28;20072;-74
2022/11/13 13:59:57;;;;;;;16.95;12.48;;;;;;;;;;10033689;28;20073;-75
2022/11/13 14:05:28;;;;;;;14.60;11.75;;;;;;;;;;10029228;28;20057;-75
2022/11/13 14:10:40;;;;;;;16.10;12.13;;;;;;;;;;10029752;28;20649;-77
2022/11/13 14:16:13;;;;;;;18.63;11.23;;;;;;;;;;10032423;28;20308;-69
2022/11/13 14:21:24;;;;;;;13.98;11.50;;;;;;;;;;10028778;28;20141;-76
2022/11/13 14:26:36;;;;;;;15.23;11.80;;;;;;;;;;10034742;28;20129;-78
2022/11/13 14:31:48;;;;;;;15.07;12.27;;;;;;;;;;10027729;28;20411;-72
2022/11/13 14:37:13;;;;;;;16.33;11.60;;;;;;;;;;10027489;28;20522;-76
2022/11/13 14:42:28;;;;;;;13.75;11.93;;;;;;;;;;10034775;28;20069;-73
2022/11/13 14:47:40;;;;;;;16.67;13.43;;;;;;;;;;10026734;28;20116;-74
2022/11/13 14:53:05;;;;;;;13.70;12.23;;;;;;;;;;10024356;28;20116;-71
2022/11/13 14:58:37;;;;;;;17.02;12.15;;;;;;;;;;10022399;28;20188;-74
2022/11/13 15:03:50;;;;;;;18.02;12.18;;;;;;;;;;10026316;28;20088;-78
2022/11/13 15:09:03;;;;;;;14.23;11.95;;;;;;;;;;10032804;28;20109;-80
2022/11/13 15:14:18;;;;;;;14.88;13.32;;;;;;;;;;10026671;28;20053;-79
2022/11/13 15:19:34;;;;;;;19.02;12.90;;;;;;;;;;10026448;28;20519;-80
2022/11/13 15:24:45;;;;;;;18.67;14.27;;;;;;;;;;10026890;28;20424;-77
2022/11/13 15:29:57;;;;;;;17.17;14.30;;;;;;;;;;10025880;28;20120;-78
2022/11/13 15:35:17;;;;;;;22.63;17.88;;;;;;;;;;10024641;28;20077;-77
2022/11/13 15:40:29;;;;;;;20.00;15.88;;;;;;;;;;10026850;28;20088;-74
2022/11/13 15:45:41;;;;;;;23.63;18.42;;;;;;;;;;10037241;28;20064;-76
2022/11/13 15:50:54;;;;;;;25.90;20.13;;;;;;;;;;10026756;28;20061;-76
2022/11/13 15:56:08;;;;;;;57.00;34.92;;;;;;;;;;10032708;28;20052;-76
2022/11/13 16:01:19;;;;;;;45.10;31.25;;;;;;;;;;10033677;28;20547;-76
2022/11/13 16:06:33;;;;;;;46.83;30.15;;;;;;;;;;10026115;28;20065;-76
2022/11/13 16:11:44;;;;;;;35.70;26.67;;;;;;;;;;10029573;28;20052;-77
2022/11/13 16:16:56;;;;;;;28.67;23.20;;;;;;;;;;10033599;28;20064;-76
2022/11/13 16:22:25;;;;;;;38.22;29.08;;;;;;;;;;10030554;28;20404;-75
2022/11/13 16:27:37;;;;;;;22.42;20.08;;;;;;;;;;10031079;28;20550;-75
2022/11/13 16:32:50;;;;;;;23.92;20.75;;;;;;;;;;10028763;28;20155;-75
2022/11/13 16:38:02;;;;;;;26.58;20.58;;;;;;;;;;10029957;28;21511;-75
2022/11/13 16:43:14;;;;;;;22.45;18.85;;;;;;;;;;10028112;28;20068;-75
2022/11/13 16:48:26;;;;;;;28.13;20.58;;;;;;;;;;10028270;28;20048;-75
2022/11/13 16:53:38;;;;;;;32.28;24.80;;;;;;;;;;10027217;28;20164;-74
2022/11/13 16:58:50;;;;;;;33.70;26.90;;;;;;;;;;10029015;28;20141;-74
2022/11/13 17:04:02;;;;;;;37.05;27.13;;;;;;;;;;10030675;28;20064;-75
2022/11/13 17:09:14;;;;;;;32.22;24.65;;;;;;;;;;10027845;28;20053;-72
2022/11/13 17:14:27;;;;;;;31.55;24.77;;;;;;;;;;10029285;28;20104;-77
2022/11/13 17:19:42;;;;;;;33.22;25.05;;;;;;;;;;10030984;28;20061;-72
2022/11/13 17:24:55;;;;;;;33.20;26.65;;;;;;;;;;10038740;28;20092;-72
2022/11/13 17:30:12;;;;;;;39.28;31.70;;;;;;;;;;10035871;28;20056;-72
2022/11/13 17:35:24;;;;;;;31.83;27.58;;;;;;;;;;10042729;28;20128;-72
2022/11/13 17:40:36;;;;;;;40.10;28.45;;;;;;;;;;10038611;28;20123;-73
2022/11/13 17:45:52;;;;;;;38.42;30.02;;;;;;;;;;10028978;28;20238;-72
2022/11/13 17:51:08;;;;;;;33.47;27.50;;;;;;;;;;10019699;28;20131;-71
2022/11/13 17:56:21;;;;;;;28.17;22.80;;;;;;;;;;10027562;28;20068;-78
2022/11/13 18:01:33;;;;;;;23.50;19.55;;;;;;;;;;10042770;28;20075;-73
2022/11/13 18:06:45;;;;;;;30.27;21.95;;;;;;;;;;10028304;28;20539;-73
2022/11/13 18:11:57;;;;;;;26.55;22.27;;;;;;;;;;10035336;28;20056;-74
2022/11/13 18:17:09;;;;;;;28.02;19.67;;;;;;;;;;10037698;28;20068;-73
2022/11/13 18:22:21;;;;;;;27.65;20.05;;;;;;;;;;10029847;28;20060;-73
2022/11/13 18:27:33;;;;;;;39.00;29.60;;;;;;;;;;10029554;28;20104;-73
2022/11/13 18:32:45;;;;;;;25.33;20.05;;;;;;;;;;10044844;28;20123;-75
2022/11/13 18:37:57;;;;;;;22.48;19.48;;;;;;;;;;10040628;28;20530;-74
2022/11/13 18:43:09;;;;;;;25.38;19.58;;;;;;;;;;10028633;28;20132;-76
2022/11/13 18:48:21;;;;;;;25.95;21.00;;;;;;;;;;10018685;28;20697;-71
2022/11/13 18:53:33;;;;;;;29.00;21.30;;;;;;;;;;10027351;28;20044;-78
2022/11/13 18:58:46;;;;;;;23.05;19.98;;;;;;;;;;10031493;28;20152;-78
2022/11/13 19:04:00;;;;;;;23.50;20.52;;;;;;;;;;10025840;28;20069;-73
2022/11/13 19:09:32;;;;;;;28.20;21.83;;;;;;;;;;10032185;28;20132;-73
2022/11/13 19:14:45;;;;;;;33.08;26.08;;;;;;;;;;10024472;28;20558;-69
2022/11/13 19:19:57;;;;;;;29.45;25.50;;;;;;;;;;10024017;28;20061;-74
2022/11/13 19:25:10;;;;;;;25.27;20.30;;;;;;;;;;10024583;28;20057;-68
2022/11/13 19:30:22;;;;;;;28.85;21.55;;;;;;;;;;10036591;28;20068;-68
2022/11/13 19:35:35;;;;;;;28.75;21.88;;;;;;;;;;10035595;28;20112;-67
2022/11/13 19:40:49;;;;;;;25.27;22.55;;;;;;;;;;10042553;28;20065;-72
2022/11/13 19:46:05;;;;;;;24.08;21.38;;;;;;;;;;10039638;28;20048;-74
2022/11/13 19:51:19;;;;;;;29.63;21.88;;;;;;;;;;10031288;28;20052;-71
2022/11/13 19:56:31;;;;;;;26.40;20.88;;;;;;;;;;10032067;28;20072;-71
2022/11/13 20:01:46;;;;;;;26.55;20.15;;;;;;;;;;10031697;28;20073;-71
2022/11/13 20:07:02;;;;;;;29.90;23.45;;;;;;;;;;10031812;28;20121;-70
2022/11/13 20:12:15;;;;;;;29.33;23.17;;;;;;;;;;10030406;28;20526;-71
2022/11/13 20:17:30;;;;;;;34.72;22.77;;;;;;;;;;10030121;28;20077;-71
2022/11/13 20:22:43;;;;;;;30.50;22.58;;;;;;;;;;10029293;28;20049;-72
2022/11/13 20:27:56;;;;;;;29.05;24.45;;;;;;;;;;10030822;28;20056;-70
2022/11/13 20:33:08;;;;;;;28.98;23.83;;;;;;;;;;10031109;28;20049;-69
2022/11/13 20:38:21;;;;;;;33.75;24.85;;;;;;;;;;10030714;28;20136;-70
2022/11/13 20:43:33;;;;;;;33.83;30.00;;;;;;;;;;10028991;28;20081;-69
2022/11/13 20:48:46;;;;;;;38.15;28.33;;;;;;;;;;10027766;28;20085;-70
2022/11/13 20:53:58;;;;;;;31.60;24.88;;;;;;;;;;10029415;28;20412;-71
2022/11/13 20:59:10;;;;;;;39.08;34.85;;;;;;;;;;10029535;28;20057;-70
2022/11/13 21:04:23;;;;;;;40.47;34.65;;;;;;;;;;10029688;28;20053;-71
2022/11/13 21:09:35;;;;;;;34.17;27.05;;;;;;;;;;10028491;28;20527;-70
2022/11/13 21:14:50;;;;;;;28.15;24.35;;;;;;;;;;10026902;28;21410;-70
2022/11/13 21:20:03;;;;;;;29.90;24.00;;;;;;;;;;10027154;28;20420;-71
2022/11/13 21:25:16;;;;;;;25.98;23.17;;;;;;;;;;10026697;28;20108;-72
2022/11/13 21:30:28;;;;;;;31.80;23.15;;;;;;;;;;10034780;28;20107;-71
2022/11/13 21:35:40;;;;;;;29.75;23.98;;;;;;;;;;10031241;28;20080;-71
2022/11/13 21:41:20;;;;;;;30.98;25.45;;;;;;;;;;10025256;28;20096;-70
2022/11/13 21:46:33;;;;;;;31.60;27.02;;;;;;;;;;10026524;28;20555;-71
2022/11/13 21:51:48;;;;;;;30.98;26.70;;;;;;;;;;10029140;28;20080;-71
2022/11/13 21:57:01;;;;;;;28.83;25.67;;;;;;;;;;10038015;28;20174;-71
2022/11/13 22:02:12;;;;;;;32.80;27.95;;;;;;;;;;10026498;28;20115;-71
2022/11/13 22:07:25;;;;;;;36.63;28.42;;;;;;;;;;10031455;28;20136;-72
2022/11/13 22:12:37;;;;;;;32.08;26.38;;;;;;;;;;10030743;28;20122;-72
2022/11/13 22:17:50;;;;;;;32.55;27.67;;;;;;;;;;10027273;28;20088;-73
2022/11/13 22:23:04;;;;;;;36.53;28.85;;;;;;;;;;10032875;28;20519;-73
2022/11/13 22:28:16;;;;;;;36.25;29.80;;;;;;;;;;9964352;28;1875450;-72
2022/11/13 22:33:30;;;;;;;42.20;32.13;;;;;;;;;;10031721;28;20546;-71
2022/11/13 22:38:42;;;;;;;36.08;28.25;;;;;;;;;;10032824;28;20060;-71
2022/11/13 22:43:58;;;;;;;34.28;27.15;;;;;;;;;;10040265;28;20052;-72
2022/11/13 22:49:11;;;;;;;39.55;28.80;;;;;;;;;;10037611;28;20048;-71
2022/11/13 22:54:23;;;;;;;32.80;27.73;;;;;;;;;;10029503;28;20451;-71
2022/11/13 22:59:35;;;;;;;38.00;28.23;;;;;;;;;;10033628;28;20111;-71
2022/11/13 23:04:47;;;;;;;30.38;26.45;;;;;;;;;;10038644;28;20052;-71
2022/11/13 23:09:58;;;;;;;31.52;26.20;;;;;;;;;;10035715;28;20132;-71
2022/11/13 23:15:10;;;;;;;30.88;26.73;;;;;;;;;;10035332;28;20068;-71
2022/11/13 23:20:23;;;;;;;33.28;27.90;;;;;;;;;;10029169;28;20060;-71
2022/11/13 23:25:36;;;;;;;35.92;28.70;;;;;;;;;;10037069;28;20144;-71
2022/11/13 23:30:48;;;;;;;37.38;30.38;;;;;;;;;;10020815;28;20049;-71
2022/11/13 23:36:01;;;;;;;40.65;31.80;;;;;;;;;;10034137;28;20519;-70
2022/11/13 23:41:13;;;;;;;36.67;28.75;;;;;;;;;;10027510;28;20120;-71
2022/11/13 23:46:25;;;;;;;35.40;29.05;;;;;;;;;;10026274;28;20068;-71
2022/11/13 23:51:37;;;;;;;31.98;27.42;;;;;;;;;;10026638;28;20113;-70
2022/11/13 23:56:49;;;;;;;29.55;26.33;;;;;;;;;;10029854;28;20069;-70
